sensor_id;sensor_type;location;lat;lon;timestamp;temperature;humidity
8914;DHT22;4492;48.736;9.092;2023-05-10T00:00:11;12.30;99.90
8914;DHT22;4492;48.736;9.092;2023-05-10T00:02:37;12.30;99.90
8914;DHT22;4492;48.736;9.092;2023-05-10T00:05:04;12.40;99.90
8914;DHT22;4492;48.736;9.092;2023-05-10T00:07:30;12.30;99.90
8914;DHT22;4492;48.736;9.092;2023-05-10T00:09:56;12.30;99.90
8914;DHT22;4492;48.736;9.092;2023-05-10T00:12:21;12.30;99.90
8914;DHT22;4492;48.736;9.092;2023-05-10T00:14:47;12.20;99.90
8914;DHT22;4492;48.736;9.092;2023-05-10T00:17:12;12.30;99.90
8914;DHT22;4492;48.736;9.092;2023-05-10T00:19:38;12.20;99.90
8914;DHT22;4492;48.736;9.092;2023-05-10T00:22:03;12.10;99.90
8914;DHT22;4492;48.736;9.092;2023-05-10T00:24:29;12.00;99.90
8914;DHT22;4492;48.736;9.092;2023-05-10T00:26:54;12.00;99.90
8914;DHT22;4492;48.736;9.092;2023-05-10T00:29:20;11.90;99.90
8914;DHT22;4492;48.736;9.092;2023-05-10T00:31:45;11.90;99.90
8914;DHT22;4492;48.736;9.092;2023-05-10T00:34:11;11.80;99.90
8914;DHT22;4492;48.736;9.092;2023-05-10T00:36:36;11.80;99.90
8914;DHT22;4492;48.736;9.092;2023-05-10T00:39:03;11.70;99.90
8914;DHT22;4492;48.736;9.092;2023-05-10T00:41:29;11.70;99.90
8914;DHT22;4492;48.736;9.092;2023-05-10T00:43:57;11.70;99.90
8914;DHT22;4492;48.736;9.092;2023-05-10T00:46:22;11.60;99.90
8914;DHT22;4492;48.736;9.092;2023-05-10T00:48:48;11.60;99.90
8914;DHT22;4492;48.736;9.092;2023-05-10T00:51:14;11.60;99.90
8914;DHT22;4492;48.736;9.092;2023-05-10T00:53:40;11.60;99.90
8914;DHT22;4492;48.736;9.092;2023-05-10T00:56:06;11.60;99.90
8914;DHT22;4492;48.736;9.092;2023-05-10T00:58:31;11.50;99.90
8914;DHT22;4492;48.736;9.092;2023-05-10T01:00:58;11.50;99.90
8914;DHT22;4492;48.736;9.092;2023-05-10T01:03:25;11.50;99.90
8914;DHT22;4492;48.736;9.092;2023-05-10T01:05:50;11.50;99.90
8914;DHT22;4492;48.736;9.092;2023-05-10T01:08:16;11.50;99.90
8914;DHT22;4492;48.736;9.092;2023-05-10T01:10:42;11.50;99.90
8914;DHT22;4492;48.736;9.092;2023-05-10T01:13:09;11.50;99.90
8914;DHT22;4492;48.736;9.092;2023-05-10T01:15:35;11.40;99.90
8914;DHT22;4492;48.736;9.092;2023-05-10T01:18:02;11.40;99.90
8914;DHT22;4492;48.736;9.092;2023-05-10T01:20:36;11.40;99.90
8914;DHT22;4492;48.736;9.092;2023-05-10T01:23:20;11.30;99.90
8914;DHT22;4492;48.736;9.092;2023-05-10T01:31:35;11.30;99.90
8914;DHT22;4492;48.736;9.092;2023-05-10T01:34:10;11.30;99.90
8914;DHT22;4492;48.736;9.092;2023-05-10T01:36:43;11.20;99.90
8914;DHT22;4492;48.736;9.092;2023-05-10T01:42:11;11.10;99.90
8914;DHT22;4492;48.736;9.092;2023-05-10T01:47:11;11.00;99.90
8914;DHT22;4492;48.736;9.092;2023-05-10T01:49:43;11.00;99.90
8914;DHT22;4492;48.736;9.092;2023-05-10T01:52:14;11.00;99.90
8914;DHT22;4492;48.736;9.092;2023-05-10T01:54:44;10.90;99.90
8914;DHT22;4492;48.736;9.092;2023-05-10T01:57:13;10.90;99.90
8914;DHT22;4492;48.736;9.092;2023-05-10T01:59:41;10.90;99.90
8914;DHT22;4492;48.736;9.092;2023-05-10T02:02:09;10.90;99.90
8914;DHT22;4492;48.736;9.092;2023-05-10T02:04:38;10.90;99.90
8914;DHT22;4492;48.736;9.092;2023-05-10T02:07:06;10.80;99.90
8914;DHT22;4492;48.736;9.092;2023-05-10T02:09:33;10.90;99.90
8914;DHT22;4492;48.736;9.092;2023-05-10T02:12:01;10.90;99.90
8914;DHT22;4492;48.736;9.092;2023-05-10T02:14:30;10.90;99.90
8914;DHT22;4492;48.736;9.092;2023-05-10T02:16:58;10.90;99.90
8914;DHT22;4492;48.736;9.092;2023-05-10T02:19:26;10.90;99.90
8914;DHT22;4492;48.736;9.092;2023-05-10T02:21:55;10.80;99.90
8914;DHT22;4492;48.736;9.092;2023-05-10T02:24:21;10.80;99.90
8914;DHT22;4492;48.736;9.092;2023-05-10T02:26:48;10.80;99.90
8914;DHT22;4492;48.736;9.092;2023-05-10T02:29:15;10.70;99.90
8914;DHT22;4492;48.736;9.092;2023-05-10T02:31:42;10.70;99.90
8914;DHT22;4492;48.736;9.092;2023-05-10T02:34:09;10.70;99.90
8914;DHT22;4492;48.736;9.092;2023-05-10T02:36:36;10.70;99.90
8914;DHT22;4492;48.736;9.092;2023-05-10T02:39:02;10.70;99.90
8914;DHT22;4492;48.736;9.092;2023-05-10T02:41:30;10.70;99.90
8914;DHT22;4492;48.736;9.092;2023-05-10T02:43:59;10.70;99.90
8914;DHT22;4492;48.736;9.092;2023-05-10T02:46:26;10.70;99.90
8914;DHT22;4492;48.736;9.092;2023-05-10T02:48:52;10.70;99.90
8914;DHT22;4492;48.736;9.092;2023-05-10T02:51:19;10.70;99.90
8914;DHT22;4492;48.736;9.092;2023-05-10T02:53:47;10.80;99.90
8914;DHT22;4492;48.736;9.092;2023-05-10T02:56:23;10.70;99.90
8914;DHT22;4492;48.736;9.092;2023-05-10T02:58:50;10.70;99.90
8914;DHT22;4492;48.736;9.092;2023-05-10T03:01:15;10.80;99.90
8914;DHT22;4492;48.736;9.092;2023-05-10T03:03:41;10.80;99.90
8914;DHT22;4492;48.736;9.092;2023-05-10T03:06:07;10.80;99.90
8914;DHT22;4492;48.736;9.092;2023-05-10T03:08:32;10.80;99.90
8914;DHT22;4492;48.736;9.092;2023-05-10T03:11:23;10.80;99.90
8914;DHT22;4492;48.736;9.092;2023-05-10T03:14:10;10.90;99.90
8914;DHT22;4492;48.736;9.092;2023-05-10T03:16:45;10.90;99.90
8914;DHT22;4492;48.736;9.092;2023-05-10T03:21:50;10.90;99.90
8914;DHT22;4492;48.736;9.092;2023-05-10T03:24:20;10.90;99.90
8914;DHT22;4492;48.736;9.092;2023-05-10T03:26:47;10.90;99.90
8914;DHT22;4492;48.736;9.092;2023-05-10T03:29:14;10.90;99.90
8914;DHT22;4492;48.736;9.092;2023-05-10T03:31:40;10.90;99.90
8914;DHT22;4492;48.736;9.092;2023-05-10T03:34:06;10.90;99.90
8914;DHT22;4492;48.736;9.092;2023-05-10T03:36:32;10.90;99.90
8914;DHT22;4492;48.736;9.092;2023-05-10T03:38:58;10.90;99.90
8914;DHT22;4492;48.736;9.092;2023-05-10T03:41:23;10.90;99.90
8914;DHT22;4492;48.736;9.092;2023-05-10T03:43:50;10.90;99.90
8914;DHT22;4492;48.736;9.092;2023-05-10T03:46:16;11.00;99.90
8914;DHT22;4492;48.736;9.092;2023-05-10T03:48:41;11.00;99.90
8914;DHT22;4492;48.736;9.092;2023-05-10T03:51:07;11.00;99.90
8914;DHT22;4492;48.736;9.092;2023-05-10T03:53:32;11.00;99.90
8914;DHT22;4492;48.736;9.092;2023-05-10T03:55:58;11.00;99.90
8914;DHT22;4492;48.736;9.092;2023-05-10T03:58:23;11.00;99.90
8914;DHT22;4492;48.736;9.092;2023-05-10T04:00:49;11.10;99.90
8914;DHT22;4492;48.736;9.092;2023-05-10T04:03:14;11.10;99.90
8914;DHT22;4492;48.736;9.092;2023-05-10T04:05:40;11.10;99.90
8914;DHT22;4492;48.736;9.092;2023-05-10T04:08:06;11.10;99.90
8914;DHT22;4492;48.736;9.092;2023-05-10T04:10:31;11.00;99.90
8914;DHT22;4492;48.736;9.092;2023-05-10T04:12:57;11.00;99.90
8914;DHT22;4492;48.736;9.092;2023-05-10T04:15:23;11.10;99.90
8914;DHT22;4492;48.736;9.092;2023-05-10T04:17:49;11.00;99.90
8914;DHT22;4492;48.736;9.092;2023-05-10T04:20:15;11.00;99.90
8914;DHT22;4492;48.736;9.092;2023-05-10T04:22:41;11.00;99.90
8914;DHT22;4492;48.736;9.092;2023-05-10T04:25:07;11.00;99.90
8914;DHT22;4492;48.736;9.092;2023-05-10T04:27:32;11.00;99.90
8914;DHT22;4492;48.736;9.092;2023-05-10T04:29:58;11.00;99.90
8914;DHT22;4492;48.736;9.092;2023-05-10T04:32:23;11.00;99.90
8914;DHT22;4492;48.736;9.092;2023-05-10T04:34:49;11.10;99.90
8914;DHT22;4492;48.736;9.092;2023-05-10T04:37:16;11.10;99.90
8914;DHT22;4492;48.736;9.092;2023-05-10T04:39:41;11.10;99.90
8914;DHT22;4492;48.736;9.092;2023-05-10T04:42:07;11.10;99.90
8914;DHT22;4492;48.736;9.092;2023-05-10T04:44:33;11.10;99.90
8914;DHT22;4492;48.736;9.092;2023-05-10T04:46:58;11.20;99.90
8914;DHT22;4492;48.736;9.092;2023-05-10T04:49:24;11.20;99.90
8914;DHT22;4492;48.736;9.092;2023-05-10T04:51:49;11.20;99.90
8914;DHT22;4492;48.736;9.092;2023-05-10T04:54:15;11.20;99.90
8914;DHT22;4492;48.736;9.092;2023-05-10T04:56:40;11.30;99.90
8914;DHT22;4492;48.736;9.092;2023-05-10T04:59:06;11.30;99.90
8914;DHT22;4492;48.736;9.092;2023-05-10T05:01:32;11.30;99.90
8914;DHT22;4492;48.736;9.092;2023-05-10T05:03:57;11.30;99.90
8914;DHT22;4492;48.736;9.092;2023-05-10T05:06:23;11.40;99.90
8914;DHT22;4492;48.736;9.092;2023-05-10T05:08:50;11.40;99.90
8914;DHT22;4492;48.736;9.092;2023-05-10T05:11:18;11.50;99.90
8914;DHT22;4492;48.736;9.092;2023-05-10T05:13:44;11.50;99.90
8914;DHT22;4492;48.736;9.092;2023-05-10T05:16:10;11.60;99.90
8914;DHT22;4492;48.736;9.092;2023-05-10T05:18:36;11.60;99.90
8914;DHT22;4492;48.736;9.092;2023-05-10T05:21:02;11.70;99.90
8914;DHT22;4492;48.736;9.092;2023-05-10T05:23:27;11.70;99.90
8914;DHT22;4492;48.736;9.092;2023-05-10T05:25:53;11.70;99.90
8914;DHT22;4492;48.736;9.092;2023-05-10T05:28:22;11.80;99.90
8914;DHT22;4492;48.736;9.092;2023-05-10T05:30:48;11.90;99.90
8914;DHT22;4492;48.736;9.092;2023-05-10T05:33:14;11.90;99.90
8914;DHT22;4492;48.736;9.092;2023-05-10T05:35:41;11.90;99.90
8914;DHT22;4492;48.736;9.092;2023-05-10T05:38:09;12.00;99.90
8914;DHT22;4492;48.736;9.092;2023-05-10T05:40:35;12.00;99.90
8914;DHT22;4492;48.736;9.092;2023-05-10T05:43:00;12.00;99.90
8914;DHT22;4492;48.736;9.092;2023-05-10T05:45:26;12.00;99.90
8914;DHT22;4492;48.736;9.092;2023-05-10T05:47:51;12.10;99.90
8914;DHT22;4492;48.736;9.092;2023-05-10T05:50:17;12.10;99.90
8914;DHT22;4492;48.736;9.092;2023-05-10T05:52:43;12.20;99.90
8914;DHT22;4492;48.736;9.092;2023-05-10T05:55:08;12.30;99.90
8914;DHT22;4492;48.736;9.092;2023-05-10T05:57:34;12.30;99.90
8914;DHT22;4492;48.736;9.092;2023-05-10T05:59:59;12.40;99.90
8914;DHT22;4492;48.736;9.092;2023-05-10T06:02:25;12.50;99.90
8914;DHT22;4492;48.736;9.092;2023-05-10T06:04:50;12.60;99.90
8914;DHT22;4492;48.736;9.092;2023-05-10T06:07:16;12.70;99.90
8914;DHT22;4492;48.736;9.092;2023-05-10T06:09:41;12.80;99.90
8914;DHT22;4492;48.736;9.092;2023-05-10T06:12:07;12.80;99.90
8914;DHT22;4492;48.736;9.092;2023-05-10T06:14:32;12.80;99.90
8914;DHT22;4492;48.736;9.092;2023-05-10T06:16:58;12.80;99.90
8914;DHT22;4492;48.736;9.092;2023-05-10T06:19:24;12.90;99.90
8914;DHT22;4492;48.736;9.092;2023-05-10T06:21:51;12.80;99.90
8914;DHT22;4492;48.736;9.092;2023-05-10T06:24:17;12.80;99.90
8914;DHT22;4492;48.736;9.092;2023-05-10T06:26:42;12.80;99.90
8914;DHT22;4492;48.736;9.092;2023-05-10T06:29:08;12.80;99.90
8914;DHT22;4492;48.736;9.092;2023-05-10T06:31:33;12.80;99.90
8914;DHT22;4492;48.736;9.092;2023-05-10T06:33:59;12.80;99.90
8914;DHT22;4492;48.736;9.092;2023-05-10T06:36:24;12.90;99.90
8914;DHT22;4492;48.736;9.092;2023-05-10T06:38:51;12.90;99.90
8914;DHT22;4492;48.736;9.092;2023-05-10T06:41:17;12.90;99.90
8914;DHT22;4492;48.736;9.092;2023-05-10T06:43:42;12.80;99.90
8914;DHT22;4492;48.736;9.092;2023-05-10T06:46:08;12.80;99.90
8914;DHT22;4492;48.736;9.092;2023-05-10T06:48:34;12.80;99.90
8914;DHT22;4492;48.736;9.092;2023-05-10T06:51:00;12.70;99.90
8914;DHT22;4492;48.736;9.092;2023-05-10T06:53:25;12.80;99.90
8914;DHT22;4492;48.736;9.092;2023-05-10T06:55:51;12.80;99.90
8914;DHT22;4492;48.736;9.092;2023-05-10T06:58:16;13.00;99.90
8914;DHT22;4492;48.736;9.092;2023-05-10T07:00:41;13.20;99.90
8914;DHT22;4492;48.736;9.092;2023-05-10T07:03:09;13.30;99.90
8914;DHT22;4492;48.736;9.092;2023-05-10T07:05:35;13.60;99.90
8914;DHT22;4492;48.736;9.092;2023-05-10T07:08:00;13.80;99.90
8914;DHT22;4492;48.736;9.092;2023-05-10T07:10:26;13.90;99.90
8914;DHT22;4492;48.736;9.092;2023-05-10T07:12:51;14.00;99.90
8914;DHT22;4492;48.736;9.092;2023-05-10T07:15:17;14.00;99.90
8914;DHT22;4492;48.736;9.092;2023-05-10T07:17:42;14.20;99.90
8914;DHT22;4492;48.736;9.092;2023-05-10T07:20:08;14.30;99.90
8914;DHT22;4492;48.736;9.092;2023-05-10T07:22:34;14.40;99.90
8914;DHT22;4492;48.736;9.092;2023-05-10T07:24:59;14.40;99.90
8914;DHT22;4492;48.736;9.092;2023-05-10T07:27:25;14.50;99.90
8914;DHT22;4492;48.736;9.092;2023-05-10T07:29:50;14.50;99.90
8914;DHT22;4492;48.736;9.092;2023-05-10T07:32:16;14.50;99.90
8914;DHT22;4492;48.736;9.092;2023-05-10T07:34:42;14.60;99.90
8914;DHT22;4492;48.736;9.092;2023-05-10T07:37:07;14.60;99.90
8914;DHT22;4492;48.736;9.092;2023-05-10T07:39:33;14.70;99.90
8914;DHT22;4492;48.736;9.092;2023-05-10T07:41:58;14.80;99.90
8914;DHT22;4492;48.736;9.092;2023-05-10T07:44:24;14.90;99.90
8914;DHT22;4492;48.736;9.092;2023-05-10T07:46:49;14.80;99.90
8914;DHT22;4492;48.736;9.092;2023-05-10T07:49:15;14.70;99.90
8914;DHT22;4492;48.736;9.092;2023-05-10T07:51:41;14.70;99.90
8914;DHT22;4492;48.736;9.092;2023-05-10T07:54:07;14.80;99.90
8914;DHT22;4492;48.736;9.092;2023-05-10T07:56:33;14.80;99.90
8914;DHT22;4492;48.736;9.092;2023-05-10T07:59:00;14.90;99.90
8914;DHT22;4492;48.736;9.092;2023-05-10T08:01:26;14.90;99.90
8914;DHT22;4492;48.736;9.092;2023-05-10T08:03:52;15.00;99.90
8914;DHT22;4492;48.736;9.092;2023-05-10T08:06:19;14.90;99.90
8914;DHT22;4492;48.736;9.092;2023-05-10T08:08:48;15.00;99.90
8914;DHT22;4492;48.736;9.092;2023-05-10T08:11:19;15.20;99.90
8914;DHT22;4492;48.736;9.092;2023-05-10T08:13:46;15.30;99.90
8914;DHT22;4492;48.736;9.092;2023-05-10T08:16:11;15.30;99.90
8914;DHT22;4492;48.736;9.092;2023-05-10T08:18:38;15.10;99.90
8914;DHT22;4492;48.736;9.092;2023-05-10T08:21:04;15.10;99.90
8914;DHT22;4492;48.736;9.092;2023-05-10T08:23:29;15.10;99.90
8914;DHT22;4492;48.736;9.092;2023-05-10T08:25:55;15.20;99.90
8914;DHT22;4492;48.736;9.092;2023-05-10T08:28:20;15.40;99.90
8914;DHT22;4492;48.736;9.092;2023-05-10T08:30:46;15.50;99.90
8914;DHT22;4492;48.736;9.092;2023-05-10T08:33:11;15.60;99.90
8914;DHT22;4492;48.736;9.092;2023-05-10T08:35:37;15.60;99.90
8914;DHT22;4492;48.736;9.092;2023-05-10T08:38:02;15.50;99.90
8914;DHT22;4492;48.736;9.092;2023-05-10T08:40:28;15.60;99.90
8914;DHT22;4492;48.736;9.092;2023-05-10T08:43:07;15.70;99.90
8914;DHT22;4492;48.736;9.092;2023-05-10T08:45:37;15.70;99.90
8914;DHT22;4492;48.736;9.092;2023-05-10T08:48:05;15.80;99.90
8914;DHT22;4492;48.736;9.092;2023-05-10T08:50:31;15.90;99.90
8914;DHT22;4492;48.736;9.092;2023-05-10T08:53:00;16.00;99.90
8914;DHT22;4492;48.736;9.092;2023-05-10T08:55:26;16.00;99.90
8914;DHT22;4492;48.736;9.092;2023-05-10T08:57:53;16.00;99.90
8914;DHT22;4492;48.736;9.092;2023-05-10T09:00:18;16.10;99.90
8914;DHT22;4492;48.736;9.092;2023-05-10T09:02:45;16.20;99.90
8914;DHT22;4492;48.736;9.092;2023-05-10T09:05:13;16.40;99.90
8914;DHT22;4492;48.736;9.092;2023-05-10T09:07:41;16.50;99.90
8914;DHT22;4492;48.736;9.092;2023-05-10T09:10:08;16.50;99.90
8914;DHT22;4492;48.736;9.092;2023-05-10T09:12:34;16.40;99.90
8914;DHT22;4492;48.736;9.092;2023-05-10T09:15:00;16.40;99.90
8914;DHT22;4492;48.736;9.092;2023-05-10T09:17:27;16.30;99.90
8914;DHT22;4492;48.736;9.092;2023-05-10T09:20:00;16.10;99.90
8914;DHT22;4492;48.736;9.092;2023-05-10T09:22:26;15.90;99.90
8914;DHT22;4492;48.736;9.092;2023-05-10T09:27:30;15.50;99.90
8914;DHT22;4492;48.736;9.092;2023-05-10T09:29:56;15.50;99.90
8914;DHT22;4492;48.736;9.092;2023-05-10T09:32:42;15.60;99.90
8914;DHT22;4492;48.736;9.092;2023-05-10T09:35:16;15.90;99.90
8914;DHT22;4492;48.736;9.092;2023-05-10T09:37:43;16.10;99.90
8914;DHT22;4492;48.736;9.092;2023-05-10T09:40:15;16.30;99.90
8914;DHT22;4492;48.736;9.092;2023-05-10T09:42:42;16.40;99.90
8914;DHT22;4492;48.736;9.092;2023-05-10T09:45:15;16.70;99.90
8914;DHT22;4492;48.736;9.092;2023-05-10T09:47:40;17.00;99.90
8914;DHT22;4492;48.736;9.092;2023-05-10T09:50:06;17.20;99.90
8914;DHT22;4492;48.736;9.092;2023-05-10T09:52:51;17.40;99.90
8914;DHT22;4492;48.736;9.092;2023-05-10T09:55:23;17.40;99.90
8914;DHT22;4492;48.736;9.092;2023-05-10T09:57:58;17.50;99.90
8914;DHT22;4492;48.736;9.092;2023-05-10T10:00:23;17.70;99.90
8914;DHT22;4492;48.736;9.092;2023-05-10T10:02:56;17.70;99.70
8914;DHT22;4492;48.736;9.092;2023-05-10T10:05:35;17.70;99.20
8914;DHT22;4492;48.736;9.092;2023-05-10T10:08:04;17.70;99.90
8914;DHT22;4492;48.736;9.092;2023-05-10T10:10:31;17.90;99.60
8914;DHT22;4492;48.736;9.092;2023-05-10T10:12:57;17.80;99.30
8914;DHT22;4492;48.736;9.092;2023-05-10T10:15:23;17.70;99.00
8914;DHT22;4492;48.736;9.092;2023-05-10T10:17:50;17.50;98.20
8914;DHT22;4492;48.736;9.092;2023-05-10T10:20:17;17.30;99.00
8914;DHT22;4492;48.736;9.092;2023-05-10T10:22:43;17.20;99.40
8914;DHT22;4492;48.736;9.092;2023-05-10T10:25:14;17.30;99.60
8914;DHT22;4492;48.736;9.092;2023-05-10T10:30:43;17.60;99.90
8914;DHT22;4492;48.736;9.092;2023-05-10T10:35:57;18.10;96.90
8914;DHT22;4492;48.736;9.092;2023-05-10T10:38:23;18.10;97.40
8914;DHT22;4492;48.736;9.092;2023-05-10T10:41:11;18.20;96.30
8914;DHT22;4492;48.736;9.092;2023-05-10T10:43:47;18.20;95.90
8914;DHT22;4492;48.736;9.092;2023-05-10T10:46:17;17.70;97.70
8914;DHT22;4492;48.736;9.092;2023-05-10T10:48:50;17.60;98.10
8914;DHT22;4492;48.736;9.092;2023-05-10T10:51:39;17.20;98.90
8914;DHT22;4492;48.736;9.092;2023-05-10T10:54:10;16.40;98.10
8914;DHT22;4492;48.736;9.092;2023-05-10T10:56:35;15.90;99.50
8914;DHT22;4492;48.736;9.092;2023-05-10T10:59:01;15.50;99.90
8914;DHT22;4492;48.736;9.092;2023-05-10T11:01:33;15.40;99.90
8914;DHT22;4492;48.736;9.092;2023-05-10T11:06:31;15.80;99.90
8914;DHT22;4492;48.736;9.092;2023-05-10T11:08:57;15.90;99.50
8914;DHT22;4492;48.736;9.092;2023-05-10T11:11:23;16.00;99.30
8914;DHT22;4492;48.736;9.092;2023-05-10T11:13:49;16.20;98.50
8914;DHT22;4492;48.736;9.092;2023-05-10T11:18:40;16.60;97.60
8914;DHT22;4492;48.736;9.092;2023-05-10T11:21:08;16.60;96.40
8914;DHT22;4492;48.736;9.092;2023-05-10T11:23:51;16.50;97.00
8914;DHT22;4492;48.736;9.092;2023-05-10T11:26:17;16.50;97.70
8914;DHT22;4492;48.736;9.092;2023-05-10T11:28:47;16.40;97.50
8914;DHT22;4492;48.736;9.092;2023-05-10T11:31:15;16.40;98.50
8914;DHT22;4492;48.736;9.092;2023-05-10T11:33:51;16.30;98.60
8914;DHT22;4492;48.736;9.092;2023-05-10T11:36:23;16.30;98.90
8914;DHT22;4492;48.736;9.092;2023-05-10T11:38:48;16.20;99.90
8914;DHT22;4492;48.736;9.092;2023-05-10T11:41:15;16.20;98.70
8914;DHT22;4492;48.736;9.092;2023-05-10T11:43:42;16.10;98.90
8914;DHT22;4492;48.736;9.092;2023-05-10T11:46:10;15.90;99.10
8914;DHT22;4492;48.736;9.092;2023-05-10T11:48:40;15.80;99.40
8914;DHT22;4492;48.736;9.092;2023-05-10T11:51:07;15.80;99.70
8914;DHT22;4492;48.736;9.092;2023-05-10T11:53:33;15.80;99.90
8914;DHT22;4492;48.736;9.092;2023-05-10T11:56:09;15.80;99.90
8914;DHT22;4492;48.736;9.092;2023-05-10T11:58:36;15.90;99.90
8914;DHT22;4492;48.736;9.092;2023-05-10T12:01:03;16.20;98.50
8914;DHT22;4492;48.736;9.092;2023-05-10T12:03:29;16.40;98.80
8914;DHT22;4492;48.736;9.092;2023-05-10T12:05:56;16.50;99.20
8914;DHT22;4492;48.736;9.092;2023-05-10T12:08:26;16.70;98.30
8914;DHT22;4492;48.736;9.092;2023-05-10T12:10:53;16.90;97.30
8914;DHT22;4492;48.736;9.092;2023-05-10T12:13:20;17.00;97.40
8914;DHT22;4492;48.736;9.092;2023-05-10T12:15:46;16.80;97.80
8914;DHT22;4492;48.736;9.092;2023-05-10T12:18:12;17.00;97.60
8914;DHT22;4492;48.736;9.092;2023-05-10T12:20:39;17.20;98.30
8914;DHT22;4492;48.736;9.092;2023-05-10T12:23:04;17.50;97.00
8914;DHT22;4492;48.736;9.092;2023-05-10T12:25:38;17.20;97.70
8914;DHT22;4492;48.736;9.092;2023-05-10T12:28:07;17.10;98.00
8914;DHT22;4492;48.736;9.092;2023-05-10T12:30:34;17.20;98.90
8914;DHT22;4492;48.736;9.092;2023-05-10T12:33:08;17.30;97.70
8914;DHT22;4492;48.736;9.092;2023-05-10T12:35:46;17.20;98.10
8914;DHT22;4492;48.736;9.092;2023-05-10T12:38:39;17.20;97.60
8914;DHT22;4492;48.736;9.092;2023-05-10T12:41:10;17.20;97.70
8914;DHT22;4492;48.736;9.092;2023-05-10T12:43:36;17.10;97.60
8914;DHT22;4492;48.736;9.092;2023-05-10T12:46:09;16.80;97.50
8914;DHT22;4492;48.736;9.092;2023-05-10T12:48:36;16.50;98.20
8914;DHT22;4492;48.736;9.092;2023-05-10T12:51:02;16.10;98.40
8914;DHT22;4492;48.736;9.092;2023-05-10T12:53:28;15.80;98.80
8914;DHT22;4492;48.736;9.092;2023-05-10T12:55:53;15.50;99.70
8914;DHT22;4492;48.736;9.092;2023-05-10T12:58:19;15.60;99.90
8914;DHT22;4492;48.736;9.092;2023-05-10T13:00:45;15.80;99.90
8914;DHT22;4492;48.736;9.092;2023-05-10T13:03:11;15.90;99.90
8914;DHT22;4492;48.736;9.092;2023-05-10T13:05:36;16.20;98.50
8914;DHT22;4492;48.736;9.092;2023-05-10T13:08:02;16.50;98.20
8914;DHT22;4492;48.736;9.092;2023-05-10T13:10:31;16.60;96.70
8914;DHT22;4492;48.736;9.092;2023-05-10T13:12:57;16.60;97.10
8914;DHT22;4492;48.736;9.092;2023-05-10T13:15:23;16.80;97.30
8914;DHT22;4492;48.736;9.092;2023-05-10T13:17:48;17.00;97.20
8914;DHT22;4492;48.736;9.092;2023-05-10T13:20:14;17.40;97.60
8914;DHT22;4492;48.736;9.092;2023-05-10T13:22:41;17.70;95.20
8914;DHT22;4492;48.736;9.092;2023-05-10T13:25:07;17.60;95.30
8914;DHT22;4492;48.736;9.092;2023-05-10T13:27:32;17.70;95.70
8914;DHT22;4492;48.736;9.092;2023-05-10T13:29:58;17.60;94.70
8914;DHT22;4492;48.736;9.092;2023-05-10T13:32:25;17.30;94.40
8914;DHT22;4492;48.736;9.092;2023-05-10T13:34:51;16.90;95.60
8914;DHT22;4492;48.736;9.092;2023-05-10T13:37:16;16.50;96.10
8914;DHT22;4492;48.736;9.092;2023-05-10T13:39:42;16.40;97.80
8914;DHT22;4492;48.736;9.092;2023-05-10T13:42:07;16.30;97.60
8914;DHT22;4492;48.736;9.092;2023-05-10T13:44:33;16.40;96.70
8914;DHT22;4492;48.736;9.092;2023-05-10T13:46:59;16.60;96.70
8914;DHT22;4492;48.736;9.092;2023-05-10T13:49:24;16.80;96.80
8914;DHT22;4492;48.736;9.092;2023-05-10T13:51:50;17.00;96.10
8914;DHT22;4492;48.736;9.092;2023-05-10T13:54:16;17.10;95.80
8914;DHT22;4492;48.736;9.092;2023-05-10T13:56:45;17.40;95.40
8914;DHT22;4492;48.736;9.092;2023-05-10T13:59:10;17.60;94.50
8914;DHT22;4492;48.736;9.092;2023-05-10T14:01:36;17.70;93.40
8914;DHT22;4492;48.736;9.092;2023-05-10T14:04:01;17.60;92.90
8914;DHT22;4492;48.736;9.092;2023-05-10T14:06:27;17.60;92.70
8914;DHT22;4492;48.736;9.092;2023-05-10T14:08:52;17.50;92.90
8914;DHT22;4492;48.736;9.092;2023-05-10T14:11:19;17.50;92.70
8914;DHT22;4492;48.736;9.092;2023-05-10T14:13:45;17.50;93.20
8914;DHT22;4492;48.736;9.092;2023-05-10T14:16:10;17.60;93.00
8914;DHT22;4492;48.736;9.092;2023-05-10T14:18:36;17.70;93.30
8914;DHT22;4492;48.736;9.092;2023-05-10T14:21:03;17.70;92.60
8914;DHT22;4492;48.736;9.092;2023-05-10T14:23:28;17.60;92.70
8914;DHT22;4492;48.736;9.092;2023-05-10T14:25:54;17.50;92.60
8914;DHT22;4492;48.736;9.092;2023-05-10T14:28:20;17.50;92.40
8914;DHT22;4492;48.736;9.092;2023-05-10T14:30:46;17.50;92.20
8914;DHT22;4492;48.736;9.092;2023-05-10T14:33:12;17.60;92.10
8914;DHT22;4492;48.736;9.092;2023-05-10T14:35:38;17.60;90.90
8914;DHT22;4492;48.736;9.092;2023-05-10T14:38:04;17.40;91.40
8914;DHT22;4492;48.736;9.092;2023-05-10T14:40:30;17.30;92.70
8914;DHT22;4492;48.736;9.092;2023-05-10T14:42:55;17.30;92.30
8914;DHT22;4492;48.736;9.092;2023-05-10T14:45:21;17.40;92.30
8914;DHT22;4492;48.736;9.092;2023-05-10T14:47:47;17.50;92.80
8914;DHT22;4492;48.736;9.092;2023-05-10T14:50:13;17.50;92.70
8914;DHT22;4492;48.736;9.092;2023-05-10T14:52:39;17.40;92.30
8914;DHT22;4492;48.736;9.092;2023-05-10T14:55:04;17.30;92.10
8914;DHT22;4492;48.736;9.092;2023-05-10T14:57:30;17.30;92.10
8914;DHT22;4492;48.736;9.092;2023-05-10T14:59:56;17.30;92.20
8914;DHT22;4492;48.736;9.092;2023-05-10T15:02:22;17.00;92.80
8914;DHT22;4492;48.736;9.092;2023-05-10T15:04:47;17.10;92.60
8914;DHT22;4492;48.736;9.092;2023-05-10T15:07:13;17.10;92.50
8914;DHT22;4492;48.736;9.092;2023-05-10T15:09:40;17.10;92.50
8914;DHT22;4492;48.736;9.092;2023-05-10T15:12:06;17.00;94.20
8914;DHT22;4492;48.736;9.092;2023-05-10T15:14:31;17.10;92.50
8914;DHT22;4492;48.736;9.092;2023-05-10T15:16:58;17.10;92.70
8914;DHT22;4492;48.736;9.092;2023-05-10T15:19:24;17.10;92.30
8914;DHT22;4492;48.736;9.092;2023-05-10T15:21:49;17.00;92.80
8914;DHT22;4492;48.736;9.092;2023-05-10T15:24:15;16.90;93.10
8914;DHT22;4492;48.736;9.092;2023-05-10T15:26:40;16.70;93.00
8914;DHT22;4492;48.736;9.092;2023-05-10T15:29:06;16.70;93.20
8914;DHT22;4492;48.736;9.092;2023-05-10T15:31:32;16.60;93.90
8914;DHT22;4492;48.736;9.092;2023-05-10T15:34:00;16.90;93.60
8914;DHT22;4492;48.736;9.092;2023-05-10T15:36:25;17.00;93.70
8914;DHT22;4492;48.736;9.092;2023-05-10T15:38:51;17.30;92.80
8914;DHT22;4492;48.736;9.092;2023-05-10T15:41:16;17.40;92.30
8914;DHT22;4492;48.736;9.092;2023-05-10T15:43:42;17.50;92.10
8914;DHT22;4492;48.736;9.092;2023-05-10T15:46:08;17.40;92.10
8914;DHT22;4492;48.736;9.092;2023-05-10T15:48:33;17.40;92.80
8914;DHT22;4492;48.736;9.092;2023-05-10T15:50:59;17.50;92.10
8914;DHT22;4492;48.736;9.092;2023-05-10T15:53:24;17.60;90.60
8914;DHT22;4492;48.736;9.092;2023-05-10T15:55:50;17.50;90.10
8914;DHT22;4492;48.736;9.092;2023-05-10T15:58:15;17.40;90.40
8914;DHT22;4492;48.736;9.092;2023-05-10T16:00:41;17.30;90.10
8914;DHT22;4492;48.736;9.092;2023-05-10T16:03:07;17.30;90.90
8914;DHT22;4492;48.736;9.092;2023-05-10T16:05:32;17.30;90.70
8914;DHT22;4492;48.736;9.092;2023-05-10T16:07:59;17.20;90.10
8914;DHT22;4492;48.736;9.092;2023-05-10T16:10:26;17.10;90.40
8914;DHT22;4492;48.736;9.092;2023-05-10T16:12:53;17.00;90.70
8914;DHT22;4492;48.736;9.092;2023-05-10T16:15:18;16.90;90.40
8914;DHT22;4492;48.736;9.092;2023-05-10T16:17:46;16.80;91.40
8914;DHT22;4492;48.736;9.092;2023-05-10T16:20:11;16.80;91.10
8914;DHT22;4492;48.736;9.092;2023-05-10T16:22:37;16.70;90.90
8914;DHT22;4492;48.736;9.092;2023-05-10T16:25:03;16.50;91.10
8914;DHT22;4492;48.736;9.092;2023-05-10T16:27:28;16.40;91.60